Startpagina
METAR-TAF:

METAR-TAF

Vliegvelden :

Chiclayo, Peru

breedte: 06-47S, lengte: 079-50W, hoogte: 29 m

Actueel weer

Dit bericht is 53 minuten geleden gemaakt, om 18:00 UTC
Wind 17 kt uit het zuidzuidwesten
Temperatuur 26°C
Vochtigheid 58%
Druk 1011 hPa
Zicht 10 km of meer
Weinig wolken op 1500 ft
Gebroken wolken op 5000 ft

METAR: SPHI 121800Z 20017KT 9999 FEW015 BKN050 26/17 Q1011 RMK BIRD HAZARD RWY 19/01 PP000

Tijdstip: 13:53 (18:53 UTC)

Verwachting

Dit bericht is 1 uur en het 53 minuten geleden gemaakt, om 17:00 UTC
Verwachting geldig van 12 om 18 UTC tot 13 om 18 UTC
Wind 16 kt uit het zuiden
Zicht 10 km of meer
geen wolken onder 1500 m en geen cumulonimbus
Van 13 om 0600 UTC
Wind 10 kt uit het zuiden
Zicht 10 km of meer
Verspreide wolken op 1500 ft
Gebroken wolken op 4000 ft

TAF: SPHI 121700Z 1218/1318 18016KT CAVOK TX27/1219Z TN19/1311Z FM130600 17010KT 9999 SCT015 BKN040

Waarnemingen en weersverwachtingen van meer dan 4000 vliegvelden (METAR en TAF).

De beschikbare stations zijn de gele en rode punten op de kaart.

Ga met uw muis naar het station om de naam te zien.

Klik dan om waarnemingen en weersverwachtingen te zien.

kaart wijzigen: klik op de groene knoppen met een zwart kruis om in te zoomen, op de groene knop met een streepje om uit te zoomen of op de groene pijlen voor aangrenzende kaarten.


METAR-TAF: